Time;durP1;ratioP1;P1;durP2;ratioP2;P2;SDS_P1;SDS_P2;PMS_P1;PMS_P2;Temp;Humidity;BMP_temperature;BMP_pressure;BME280_temperature;BME280_humidity;BME280_pressure;Samples;Min_cycle;Max_cycle;Signal;HPM_P1;HPM_P2
2022/04/18 00:03:12;;;;;;;5.33;3.07;;;12.30;75.10;;;;;;10291409;28;20241;-81
2022/04/18 00:08:14;;;;;;;4.00;2.60;;;12.70;65.10;;;;;;10314039;28;20271;-81
2022/04/18 00:13:17;;;;;;;3.00;2.57;;;12.10;77.30;;;;;;10312103;28;20680;-81
2022/04/18 00:18:19;;;;;;;4.13;2.70;;;13.30;84.20;;;;;;10292790;28;20253;-81
2022/04/18 00:23:22;;;;;;;3.33;2.80;;;12.40;86.50;;;;;;10288768;28;20215;-81
2022/04/18 00:28:24;;;;;;;2.80;2.17;;;12.30;79.60;;;;;;10290175;28;20213;-81
2022/04/18 00:33:27;;;;;;;2.67;2.00;;;13.00;84.90;;;;;;10278771;28;20250;-81
2022/04/18 00:38:29;;;;;;;3.97;2.73;;;13.50;82.50;;;;;;10272798;28;20667;-81
2022/04/18 00:43:46;;;;;;;3.70;2.80;;;14.00;81.00;;;;;;10277636;28;20217;-81
2022/04/18 00:48:49;;;;;;;2.97;2.63;;;14.30;79.50;;;;;;10287347;28;20212;-81
2022/04/18 00:53:55;;;;;;;3.50;2.33;;;14.30;80.10;;;;;;10280228;28;20762;-81
2022/04/18 00:58:58;;;;;;;3.87;2.67;;;14.40;79.30;;;;;;10264494;28;20357;-81
2022/04/18 01:04:01;;;;;;;2.70;2.27;;;14.30;72.00;;;;;;10264589;28;20210;-80
2022/04/18 01:09:03;;;;;;;3.80;2.23;;;14.30;78.90;;;;;;10268737;28;20220;-80
2022/04/18 01:14:06;;;;;;;3.90;2.73;;;14.30;78.70;;;;;;10294205;28;20207;-80
2022/04/18 01:19:24;;;;;;;4.37;2.73;;;14.40;78.70;;;;;;10276439;28;20226;-80
2022/04/18 01:30:24;;;;;;;2.73;2.40;;;14.00;78.20;;;;;;10267501;28;20282;-80
2022/04/18 01:35:27;;;;;;;2.67;2.20;;;14.20;79.00;;;;;;10277349;28;20250;-81
2022/04/18 01:40:30;;;;;;;2.47;2.20;;;14.30;78.00;;;;;;10293153;28;20303;-80
2022/04/18 01:45:33;;;;;;;3.53;2.47;;;13.70;79.00;;;;;;10262167;28;20213;-80
2022/04/18 01:50:43;;;;;;;3.33;2.83;;;13.70;79.10;;;;;;10277918;28;20583;-80
2022/04/18 01:55:45;;;;;;;4.20;2.47;;;13.90;74.40;;;;;;10292073;28;20213;-81
2022/04/18 02:00:48;;;;;;;4.53;2.27;;;14.10;78.20;;;;;;10248311;28;20708;-80
2022/04/18 02:05:55;;;;;;;3.43;2.47;;;14.30;77.80;;;;;;10264939;28;20420;-81
2022/04/18 02:10:58;;;;;;;2.93;2.50;;;14.40;77.80;;;;;;10270942;28;20637;-80
2022/04/18 02:16:06;;;;;;;2.23;2.03;;;14.40;77.60;;;;;;10275931;28;20214;-80
2022/04/18 02:21:12;;;;;;;2.47;1.90;;;14.40;77.60;;;;;;10286690;28;20235;-81
2022/04/18 02:26:14;;;;;;;2.53;1.93;;;14.60;77.40;;;;;;10250827;28;20210;-81
2022/04/18 02:31:19;;;;;;;3.50;2.10;;;14.60;76.90;;;;;;10264075;28;20203;-81
2022/04/18 02:36:22;;;;;;;5.17;2.43;;;14.80;76.50;;;;;;10271555;28;20219;-81
2022/04/18 02:41:25;;;;;;;2.47;2.27;;;14.70;76.40;;;;;;10267891;28;20308;-80
2022/04/18 02:46:28;;;;;;;1.90;1.80;;;14.50;76.90;;;;;;10286437;28;20206;-80
2022/04/18 02:51:35;;;;;;;4.17;2.07;;;14.70;77.00;;;;;;10314732;28;20225;-81
2022/04/18 02:56:43;;;;;;;3.30;2.70;;;14.70;76.00;;;;;;10292789;28;20253;-80
2022/04/18 03:01:46;;;;;;;3.10;2.13;;;14.70;74.90;;;;;;10326404;28;20295;-81
2022/04/18 03:06:49;;;;;;;2.80;2.43;;;14.70;76.00;;;;;;10317376;28;20211;-81
2022/04/18 03:11:51;;;;;;;2.47;2.03;;;14.70;75.90;;;;;;10300738;28;20466;-81
2022/04/18 03:16:56;;;;;;;2.47;2.13;;;14.80;75.60;;;;;;10288536;28;20209;-81
2022/04/18 03:21:59;;;;;;;2.67;1.90;;;14.70;75.50;;;;;;10315395;28;20259;-81
2022/04/18 03:27:05;;;;;;;2.67;2.10;;;14.80;75.60;;;;;;10312005;28;20205;-81
2022/04/18 03:32:11;;;;;;;3.00;2.33;;;14.80;75.40;;;;;;10300597;28;20238;-81
2022/04/18 03:42:36;;;;;;;2.20;2.00;;;14.60;75.60;;;;;;10315566;28;20319;-81
2022/04/18 03:47:42;;;;;;;3.50;2.50;;;14.60;75.70;;;;;;10308221;28;20233;-81
2022/04/18 03:52:45;;;;;;;2.03;1.80;;;14.50;74.80;;;;;;10290692;28;20245;-81
2022/04/18 03:58:01;;;;;;;2.90;1.97;;;14.60;75.50;;;;;;10274788;28;20202;-81
2022/04/18 04:03:04;;;;;;;2.50;2.00;;;14.50;75.50;;;;;;10289171;28;20332;-81
2022/04/18 04:08:18;;;;;;;4.50;3.30;;;14.50;75.70;;;;;;10273321;28;20214;-80
2022/04/18 04:13:20;;;;;;;4.03;2.97;;;14.50;73.20;;;;;;10289631;28;20241;-80
2022/04/18 04:18:38;;;;;;;3.53;2.50;;;13.90;69.70;;;;;;10287836;28;20312;-80
2022/04/18 04:23:45;;;;;;;4.20;2.60;;;13.70;75.70;;;;;;10266320;28;20304;-80
2022/04/18 04:28:54;;;;;;;3.27;2.37;;;13.20;74.00;;;;;;10289240;28;20234;-80
2022/04/18 04:34:21;;;;;;;2.80;2.17;;;12.80;74.80;;;;;;10280748;28;20284;-80
2022/04/18 04:39:42;;;;;;;5.87;2.80;;;12.50;80.40;;;;;;10280328;28;20449;-80
2022/04/18 04:44:45;;;;;;;2.53;2.20;;;12.80;73.30;;;;;;10268032;28;20708;-81
2022/04/18 04:49:55;;;;;;;5.20;3.23;;;14.00;77.80;;;;;;10283784;28;20288;-81
2022/04/18 04:55:00;;;;;;;4.90;2.77;;;13.90;75.70;;;;;;10286388;28;20245;-80
2022/04/18 05:00:13;;;;;;;3.40;2.53;;;10.70;86.60;;;;;;10268713;28;20394;-80
2022/04/18 05:05:47;;;;;;;4.33;3.93;;;11.70;78.40;;;;;;10203126;29;20274;-80
2022/04/18 05:11:22;;;;;;;2.73;2.33;;;10.40;62.00;;;;;;10198831;29;20320;-80
2022/04/18 05:16:27;;;;;;;5.30;2.73;;;11.60;83.90;;;;;;10183162;29;20234;-80
2022/04/18 05:21:45;;;;;;;5.17;3.73;;;10.80;84.10;;;;;;10206365;29;20262;-80
2022/04/18 05:26:54;;;;;;;6.50;4.73;;;12.80;71.60;;;;;;10179171;29;20293;-80
2022/04/18 05:31:57;;;;;;;7.53;4.80;;;10.50;63.00;;;;;;10183042;29;20250;-80
2022/04/18 05:37:01;;;;;;;2.83;2.53;;;10.70;67.50;;;;;;10183057;29;20234;-80
2022/04/18 05:42:39;;;;;;;4.80;3.03;;;10.00;91.40;;;;;;10153993;29;20741;-80
2022/04/18 05:47:51;;;;;;;2.73;2.47;;;10.80;82.20;;;;;;10130596;29;20279;-80
2022/04/18 05:52:54;;;;;;;2.90;2.57;;;12.10;86.00;;;;;;10178985;29;20369;-80
2022/04/18 05:58:15;;;;;;;5.47;4.47;;;12.00;83.70;;;;;;10180808;29;20243;-80
2022/04/18 06:03:18;;;;;;;5.27;3.83;;;11.40;75.30;;;;;;10156551;29;20267;-80
2022/04/18 06:08:21;;;;;;;3.43;3.13;;;12.10;73.40;;;;;;10132186;29;20758;-80
2022/04/18 06:13:33;;;;;;;10.17;5.23;;;12.40;77.20;;;;;;10158236;29;20273;-80
2022/04/18 06:18:37;;;;;;;8.03;5.83;;;9.20;64.90;;;;;;10280955;28;20653;-80
2022/04/18 06:23:43;;;;;;;4.43;3.30;;;6.80;75.50;;;;;;10297454;28;20273;-80
2022/04/18 06:29:06;;;;;;;7.17;5.97;;;8.30;95.40;;;;;;10291312;28;20267;-80
2022/04/18 06:34:14;;;;;;;5.33;2.87;;;6.30;77.40;;;;;;10289628;28;20246;-80
2022/04/18 06:39:18;;;;;;;8.73;6.30;;;10.00;96.20;;;;;;10293592;28;20280;-80
2022/04/18 06:44:24;;;;;;;6.23;4.67;;;10.10;71.70;;;;;;10254340;28;20249;-80
2022/04/18 06:49:31;;;;;;;4.00;3.00;;;10.10;86.10;;;;;;10260868;28;20273;-80
2022/04/18 06:54:52;;;;;;;7.63;5.33;;;11.80;90.80;;;;;;10294304;28;20248;-80
2022/04/18 06:59:55;;;;;;;6.67;5.23;;;10.40;75.20;;;;;;10272809;28;20268;-80
2022/04/18 07:05:01;;;;;;;2.83;2.43;;;12.70;77.70;;;;;;10275810;28;20241;-80
2022/04/18 07:10:04;;;;;;;5.57;4.20;;;13.30;82.00;;;;;;10274939;28;20318;-80
2022/04/18 07:15:07;;;;;;;4.47;3.43;;;12.70;68.60;;;;;;10274845;28;20312;-80
2022/04/18 07:20:12;;;;;;;6.97;4.07;;;12.90;82.40;;;;;;10274493;28;20261;-80
2022/04/18 07:25:15;;;;;;;4.10;3.70;;;12.40;74.50;;;;;;10273645;28;20237;-80
2022/04/18 07:30:29;;;;;;;9.73;8.47;;;12.80;74.70;;;;;;10256036;28;20657;-80
2022/04/18 07:35:33;;;;;;;7.73;6.13;;;11.40;66.70;;;;;;10289595;28;20572;-80
2022/04/18 07:40:44;;;;;;;5.93;5.37;;;12.30;72.00;;;;;;10273597;28;20257;-81
2022/04/18 07:45:50;;;;;;;12.57;7.80;;;14.40;74.70;;;;;;10264082;28;20241;-80
2022/04/18 07:56:16;;;;;;;2.77;2.50;;;15.30;74.70;;;;;;10313036;28;20244;-80
2022/04/18 08:01:20;;;;;;;6.50;5.67;;;13.90;78.60;;;;;;10323800;28;20319;-80
2022/04/18 08:06:24;;;;;;;9.70;7.63;;;12.50;75.60;;;;;;10273180;28;20308;-80
2022/04/18 08:11:38;;;;;;;9.03;7.57;;;12.90;64.50;;;;;;10328805;28;20201;-80
2022/04/18 08:16:42;;;;;;;6.47;5.50;;;12.60;66.50;;;;;;10329037;28;20236;-80
2022/04/18 08:22:18;;;;;;;4.70;4.17;;;13.10;72.50;;;;;;10165908;29;20326;-80
2022/04/18 08:27:39;;;;;;;3.57;2.77;;;12.20;78.20;;;;;;10166605;29;20235;-80
2022/04/18 08:32:47;;;;;;;3.80;3.17;;;13.50;79.70;;;;;;10150168;29;20693;-80
2022/04/18 08:37:50;;;;;;;5.27;2.80;;;14.30;75.90;;;;;;10149387;29;20311;-80
2022/04/18 08:42:56;;;;;;;6.80;5.73;;;15.40;73.50;;;;;;10173885;29;20885;-80
2022/04/18 08:53:23;;;;;;;8.37;7.50;;;13.50;74.80;;;;;;10163650;29;20259;-79
2022/04/18 08:58:27;;;;;;;2.97;2.63;;;14.50;60.60;;;;;;10238764;28;20253;-80
2022/04/18 09:03:30;;;;;;;4.03;2.53;;;14.20;76.30;;;;;;10254259;28;20272;-80
2022/04/18 09:08:42;;;;;;;7.87;5.77;;;15.30;71.70;;;;;;10246345;28;20258;-80
2022/04/18 09:13:45;;;;;;;2.87;2.00;;;15.20;52.50;;;;;;10263152;28;20301;-80
2022/04/18 09:19:12;;;;;;;2.63;2.43;;;14.90;72.10;;;;;;10272288;28;20270;-80
2022/04/18 09:24:31;;;;;;;5.50;4.40;;;14.80;73.30;;;;;;10252059;28;20320;-80
2022/04/18 09:30:09;;;;;;;4.33;3.63;;;15.70;54.90;;;;;;10267943;28;20237;-81
2022/04/18 09:35:24;;;;;;;5.07;3.90;;;13.50;64.00;;;;;;10262116;28;20315;-79
2022/04/18 09:40:31;;;;;;;5.87;5.23;;;13.80;68.90;;;;;;10263050;28;20328;-78
2022/04/18 09:45:37;;;;;;;7.60;5.13;;;11.00;63.10;;;;;;10250961;28;20237;-80
2022/04/18 09:50:59;;;;;;;5.03;4.43;;;12.40;60.20;;;;;;10274461;28;20301;-80
2022/04/18 09:56:13;;;;;;;6.20;4.77;;;10.70;59.20;;;;;;10302981;28;20261;-80
2022/04/18 10:01:16;;;;;;;5.57;5.07;;;11.00;61.60;;;;;;10313418;28;20576;-80
2022/04/18 10:06:20;;;;;;;7.03;4.43;;;10.90;57.40;;;;;;10300747;28;20349;-81
2022/04/18 10:11:23;;;;;;;6.20;4.37;;;10.60;60.80;;;;;;10310919;28;20233;-88
2022/04/18 10:16:27;;;;;;;4.87;4.00;;;12.20;57.80;;;;;;10306431;28;20209;-88
2022/04/18 10:21:31;;;;;;;5.60;3.43;;;12.90;55.80;;;;;;10303013;28;20259;-86
2022/04/18 10:27:20;;;;;;;9.40;3.80;;;13.70;61.30;;;;;;10298182;28;20225;-90
2022/04/18 10:32:26;;;;;;;8.67;4.93;;;13.70;63.30;;;;;;10315101;28;20608;-92
2022/04/18 10:37:30;;;;;;;11.67;4.10;;;12.70;58.00;;;;;;10271169;28;20209;-92
2022/04/18 10:42:35;;;;;;;6.73;4.20;;;12.10;55.90;;;;;;10268664;28;20238;-91
2022/04/18 10:47:55;;;;;;;4.77;4.30;;;15.20;46.70;;;;;;10344567;28;20260;-89
2022/04/18 10:53:06;;;;;;;8.03;4.80;;;10.70;56.70;;;;;;10321001;28;20787;-86
2022/04/18 10:58:16;;;;;;;6.77;4.77;;;11.40;57.70;;;;;;10334072;28;20220;-90
2022/04/18 11:03:54;;;;;;;19.30;5.00;;;11.00;60.00;;;;;;10289036;28;20238;-93
2022/04/18 11:09:07;;;;;;;6.90;4.53;;;12.80;58.00;;;;;;10273043;28;20276;-88
2022/04/18 11:14:23;;;;;;;22.00;4.27;;;15.60;48.90;;;;;;10289320;28;20268;-87
2022/04/18 11:19:28;;;;;;;18.17;4.80;;;12.40;65.60;;;;;;10308849;28;20248;-84
2022/04/18 11:24:49;;;;;;;8.70;4.97;;;14.10;61.10;;;;;;10297888;28;20268;-81
2022/04/18 11:29:57;;;;;;;8.47;5.57;;;12.90;51.70;;;;;;10323875;28;20245;-84
2022/04/18 11:35:01;;;;;;;8.97;5.80;;;13.10;54.70;;;;;;10275637;28;20260;-84
2022/04/18 11:40:06;;;;;;;5.17;4.10;;;13.60;54.90;;;;;;10312002;28;20248;-84
2022/04/18 11:45:26;;;;;;;6.27;4.57;;;14.50;54.20;;;;;;10300288;28;20261;-81
2022/04/18 11:50:29;;;;;;;6.67;5.03;;;14.10;54.90;;;;;;10291790;28;20261;-80
2022/04/18 11:55:32;;;;;;;6.53;4.97;;;13.60;50.90;;;;;;10274702;28;20269;-81
2022/04/18 12:11:18;;;;;;;3.30;2.67;;;14.30;51.00;;;;;;10290727;28;20637;-81
2022/04/18 12:16:21;;;;;;;5.03;3.23;;;15.90;54.40;;;;;;10290699;28;20300;-81
2022/04/18 12:21:25;;;;;;;6.60;4.53;;;13.50;48.20;;;;;;10273076;28;20261;-81
2022/04/18 12:26:30;;;;;;;3.03;2.70;;;12.20;51.80;;;;;;10272758;28;20256;-81
2022/04/18 12:31:32;;;;;;;5.23;2.60;;;12.80;61.90;;;;;;10290073;28;20320;-81
2022/04/18 12:36:35;;;;;;;3.37;2.27;;;14.30;59.70;;;;;;10273059;28;20245;-81
2022/04/18 12:41:38;;;;;;;3.67;2.73;;;14.80;56.80;;;;;;10289195;28;20293;-81
2022/04/18 12:46:41;;;;;;;6.17;4.10;;;14.30;60.10;;;;;;10289316;28;20245;-81
2022/04/18 12:51:50;;;;;;;4.33;3.10;;;14.70;49.80;;;;;;10288951;28;20316;-81
2022/04/18 12:56:53;;;;;;;3.60;3.17;;;15.30;51.90;;;;;;10303200;28;20264;-84
2022/04/18 13:02:09;;;;;;;6.93;3.43;;;15.30;45.30;;;;;;10322492;28;20260;-84
2022/04/18 13:07:12;;;;;;;5.10;2.93;;;13.20;51.50;;;;;;10299585;28;20683;-81
2022/04/18 13:12:15;;;;;;;5.23;2.70;;;13.70;55.50;;;;;;10295834;28;20300;-82
2022/04/18 13:17:17;;;;;;;4.27;2.10;;;14.30;48.30;;;;;;10302634;28;20245;-81
2022/04/18 13:22:20;;;;;;;6.33;3.20;;;14.90;53.00;;;;;;10297176;28;20268;-82
2022/04/18 13:27:27;;;;;;;6.37;2.67;;;14.10;45.20;;;;;;10315740;28;20287;-82
2022/04/18 13:32:31;;;;;;;6.70;2.20;;;15.10;44.90;;;;;;10306326;28;20292;-82
2022/04/18 13:37:33;;;;;;;4.87;2.17;;;15.30;52.50;;;;;;10299815;28;20264;-82
2022/04/18 13:42:36;;;;;;;3.43;2.77;;;15.50;47.40;;;;;;10308566;28;20257;-82
2022/04/18 13:47:42;;;;;;;3.57;1.87;;;15.60;54.00;;;;;;10292822;28;20670;-82
2022/04/18 13:52:45;;;;;;;4.13;3.27;;;16.10;54.20;;;;;;10284586;28;20806;-82
2022/04/18 13:57:48;;;;;;;4.07;3.40;;;15.20;53.30;;;;;;10286615;28;20253;-82
2022/04/18 14:02:51;;;;;;;4.67;3.33;;;14.80;44.10;;;;;;10300856;28;20323;-82
2022/04/18 14:07:54;;;;;;;2.07;1.33;;;14.90;47.90;;;;;;10308180;28;20291;-82
2022/04/18 14:12:57;;;;;;;4.03;3.40;;;14.80;57.00;;;;;;10309599;28;20638;-82
2022/04/18 14:23:20;;;;;;;2.70;1.50;;;15.40;57.20;;;;;;10323021;28;20839;-82
2022/04/18 14:28:23;;;;;;;4.47;2.87;;;16.10;56.10;;;;;;10286390;28;20689;-82
2022/04/18 14:33:25;;;;;;;2.53;1.73;;;13.80;57.00;;;;;;10286575;28;20241;-82
2022/04/18 14:38:28;;;;;;;2.13;1.80;;;15.70;56.10;;;;;;10300085;28;20238;-82
2022/04/18 14:43:31;;;;;;;5.43;4.03;;;15.70;57.90;;;;;;10285837;28;20269;-81
2022/04/18 14:48:33;;;;;;;9.03;3.17;;;15.20;46.60;;;;;;10297174;28;20245;-82
2022/04/18 14:53:36;;;;;;;2.20;1.70;;;14.80;57.30;;;;;;10301118;28;20278;-82
2022/04/18 14:58:39;;;;;;;4.33;2.17;;;15.50;58.80;;;;;;10306747;28;20238;-82
2022/04/18 15:03:43;;;;;;;1.83;1.30;;;16.40;55.30;;;;;;10289153;28;20265;-82
2022/04/18 15:08:45;;;;;;;1.67;1.47;;;16.60;56.60;;;;;;10295887;28;20300;-82
2022/04/18 15:13:48;;;;;;;2.80;1.60;;;15.00;58.40;;;;;;10314978;28;20629;-82
2022/04/18 15:18:50;;;;;;;5.00;4.00;;;14.40;59.50;;;;;;10304773;28;20248;-82
2022/04/18 15:23:53;;;;;;;4.27;3.20;;;14.40;44.00;;;;;;10303447;28;20838;-82
2022/04/18 15:28:55;;;;;;;2.27;1.80;;;13.30;46.60;;;;;;10308069;28;20326;-82
2022/04/18 15:33:58;;;;;;;7.37;5.13;;;14.40;62.60;;;;;;10289831;28;20244;-82
2022/04/18 15:39:00;;;;;;;7.33;1.67;;;14.80;54.90;;;;;;10294173;28;20270;-81
2022/04/18 15:44:03;;;;;;;7.87;4.70;;;16.00;58.70;;;;;;10285139;28;20257;-82
2022/04/18 15:49:06;;;;;;;7.77;5.27;;;15.20;46.50;;;;;;10306805;28;20280;-82
2022/04/18 15:54:08;;;;;;;2.20;1.50;;;14.10;59.10;;;;;;10306936;28;20253;-82
2022/04/18 15:59:11;;;;;;;12.27;4.07;;;15.60;57.00;;;;;;10292560;28;20234;-82
2022/04/18 16:04:14;;;;;;;6.43;3.03;;;13.80;47.70;;;;;;10305131;28;20284;-82
2022/04/18 16:09:17;;;;;;;2.43;1.80;;;13.70;54.20;;;;;;10309780;28;20244;-82
2022/04/18 16:14:20;;;;;;;19.27;8.27;;;14.90;62.50;;;;;;10301417;28;20287;-81
2022/04/18 16:19:24;;;;;;;4.43;2.03;;;13.90;52.60;;;;;;10302447;28;20259;-82
2022/04/18 16:24:27;;;;;;;2.03;1.57;;;14.20;55.90;;;;;;10271149;28;20307;-82
2022/04/18 16:34:52;;;;;;;5.07;3.67;;;14.90;49.10;;;;;;10284834;28;20694;-82
2022/04/18 16:39:55;;;;;;;3.80;3.20;;;13.10;46.60;;;;;;10307561;28;20631;-82
2022/04/18 16:50:19;;;;;;;5.63;2.80;;;13.50;65.70;;;;;;10305844;28;20269;-81
2022/04/18 16:55:22;;;;;;;4.80;2.93;;;12.50;53.00;;;;;;10271258;28;20300;-81
2022/04/18 17:00:25;;;;;;;4.43;2.93;;;11.90;50.10;;;;;;10254764;28;20320;-81
2022/04/18 17:05:27;;;;;;;4.37;2.30;;;11.90;51.70;;;;;;10238232;28;20269;-81
2022/04/18 17:10:30;;;;;;;3.80;2.63;;;12.20;56.10;;;;;;10237402;28;20688;-81
2022/04/18 17:15:32;;;;;;;3.93;2.93;;;12.20;54.60;;;;;;10253363;28;20249;-81
2022/04/18 17:20:35;;;;;;;3.47;2.53;;;11.70;52.80;;;;;;10268011;28;20249;-81
2022/04/18 17:25:37;;;;;;;4.97;3.60;;;11.40;54.80;;;;;;10243735;28;20261;-81
2022/04/18 17:30:40;;;;;;;4.53;2.13;;;11.10;54.20;;;;;;10249924;28;20246;-81
2022/04/18 17:35:42;;;;;;;5.83;3.27;;;11.40;58.80;;;;;;10252909;28;20358;-81
2022/04/18 17:40:45;;;;;;;6.47;2.87;;;11.30;56.10;;;;;;10283010;28;20269;-81
2022/04/18 17:45:47;;;;;;;4.93;2.50;;;11.10;52.50;;;;;;10261288;28;20324;-81
2022/04/18 17:50:50;;;;;;;3.93;2.93;;;10.90;52.90;;;;;;10269807;28;20260;-81
2022/04/18 17:55:58;;;;;;;21.90;8.70;;;10.70;54.20;;;;;;10319439;28;20635;-81
2022/04/18 18:01:01;;;;;;;12.00;5.67;;;10.90;59.20;;;;;;10296493;28;20237;-81
2022/04/18 18:06:04;;;;;;;8.37;4.47;;;11.30;61.20;;;;;;10313573;28;20256;-81
2022/04/18 18:11:07;;;;;;;9.57;3.03;;;10.90;57.40;;;;;;10289598;28;20241;-82
2022/04/18 18:16:10;;;;;;;35.23;14.10;;;9.90;62.50;;;;;;10297037;28;20706;-82
2022/04/18 18:21:13;;;;;;;15.43;5.60;;;9.40;62.40;;;;;;10289014;28;20240;-82
2022/04/18 18:26:16;;;;;;;2.70;1.77;;;9.50;66.40;;;;;;10288882;28;20722;-83
2022/04/18 18:31:18;;;;;;;9.47;4.40;;;10.50;70.20;;;;;;10321038;28;20236;-80
2022/04/18 18:36:21;;;;;;;57.47;21.47;;;12.50;72.10;;;;;;10313546;28;20280;-80
2022/04/18 18:41:24;;;;;;;28.20;10.03;;;11.20;60.00;;;;;;10298019;28;20677;-80
2022/04/18 18:46:26;;;;;;;13.97;4.30;;;10.40;66.50;;;;;;10308565;28;20266;-80
2022/04/18 18:56:53;;;;;;;23.40;8.07;;;11.50;64.40;;;;;;10325329;28;20702;-79
2022/04/18 19:01:56;;;;;;;5.30;3.53;;;11.30;66.60;;;;;;10316987;28;20308;-80
2022/04/18 19:06:58;;;;;;;86.43;45.43;;;11.30;66.80;;;;;;10267308;28;20268;-80
2022/04/18 19:12:01;;;;;;;52.60;23.93;;;11.60;63.00;;;;;;10288505;28;20244;-80
2022/04/18 19:27:45;;;;;;;6.23;3.77;;;9.70;59.80;;;;;;10284733;28;20866;-80
2022/04/18 19:32:48;;;;;;;6.63;3.50;;;9.60;61.30;;;;;;10286961;28;20660;-80
2022/04/18 19:37:50;;;;;;;5.93;4.53;;;9.40;61.30;;;;;;10290302;28;20246;-80
2022/04/18 19:42:53;;;;;;;7.93;4.07;;;9.30;61.20;;;;;;10293027;28;20772;-80
2022/04/18 19:47:55;;;;;;;9.50;4.87;;;9.50;62.90;;;;;;10284963;28;20243;-80
2022/04/18 19:53:01;;;;;;;7.63;4.30;;;10.10;60.90;;;;;;10298201;28;20363;-79
2022/04/18 19:58:06;;;;;;;6.83;4.63;;;10.80;60.10;;;;;;10268917;28;20245;-80
2022/04/18 20:03:09;;;;;;;5.03;2.80;;;11.50;65.50;;;;;;10284943;28;20269;-80
2022/04/18 20:08:11;;;;;;;7.87;4.43;;;12.50;65.70;;;;;;10269038;28;20240;-80
2022/04/18 20:13:14;;;;;;;4.83;3.00;;;11.90;54.90;;;;;;10270587;28;20703;-80
2022/04/18 20:18:29;;;;;;;9.23;4.80;;;12.00;69.10;;;;;;10285173;28;20641;-80
2022/04/18 20:23:33;;;;;;;7.23;4.07;;;11.10;56.40;;;;;;10290050;28;20312;-80
2022/04/18 20:28:36;;;;;;;8.87;4.87;;;10.90;65.20;;;;;;10292663;28;20700;-80
2022/04/18 20:33:38;;;;;;;5.17;2.80;;;12.20;55.40;;;;;;10313983;28;20244;-81
2022/04/18 20:38:41;;;;;;;5.20;3.13;;;12.50;67.40;;;;;;10307713;28;20299;-82
2022/04/18 20:43:43;;;;;;;7.63;3.93;;;13.80;58.10;;;;;;10276521;28;20308;-82
2022/04/18 20:48:46;;;;;;;10.20;3.90;;;13.60;60.40;;;;;;10277566;28;20287;-82
2022/04/18 20:59:10;;;;;;;6.60;3.17;;;13.00;67.50;;;;;;10299348;28;20310;-82
2022/04/18 21:04:13;;;;;;;5.23;2.60;;;13.00;57.00;;;;;;10297374;28;20332;-82
2022/04/18 21:09:15;;;;;;;7.07;3.20;;;13.20;64.90;;;;;;10305948;28;20236;-80
2022/04/18 21:14:18;;;;;;;5.83;3.60;;;13.60;63.60;;;;;;10295525;28;20245;-80
2022/04/18 21:19:20;;;;;;;7.43;4.70;;;13.60;54.30;;;;;;10293132;28;20302;-80
2022/04/18 21:24:23;;;;;;;7.67;3.43;;;12.20;50.40;;;;;;10328449;28;20314;-80
2022/04/18 21:29:25;;;;;;;6.43;4.40;;;11.90;61.80;;;;;;10307621;28;20193;-80
2022/04/18 21:34:28;;;;;;;4.70;2.37;;;12.30;57.40;;;;;;10321644;28;20288;-80
2022/04/18 21:39:30;;;;;;;6.20;4.03;;;12.60;65.40;;;;;;10319232;28;20644;-80
2022/04/18 21:44:32;;;;;;;4.23;3.20;;;12.30;62.20;;;;;;9967052;28;9999873;-80
2022/04/18 21:49:35;;;;;;;4.60;3.53;;;12.80;66.50;;;;;;10288478;28;21058;-81
2022/04/18 21:54:39;;;;;;;8.50;4.90;;;12.90;61.40;;;;;;10283054;28;20249;-80
2022/04/18 21:59:42;;;;;;;5.97;4.30;;;12.60;59.50;;;;;;10309195;28;20237;-80
2022/04/18 22:04:46;;;;;;;5.60;2.60;;;11.40;58.50;;;;;;10292008;28;20315;-80
2022/04/18 22:09:48;;;;;;;5.20;2.63;;;11.50;71.20;;;;;;10285055;28;20265;-80
2022/04/18 22:14:51;;;;;;;3.17;2.00;;;11.00;69.40;;;;;;10265910;28;20311;-80
2022/04/18 22:25:15;;;;;;;6.43;3.50;;;12.00;58.90;;;;;;10283188;28;20287;-81
2022/04/18 22:30:17;;;;;;;3.70;2.40;;;11.50;66.30;;;;;;10307820;28;20240;-80
2022/04/18 22:35:19;;;;;;;8.27;4.23;;;12.70;65.10;;;;;;10287835;28;21118;-80
2022/04/18 22:40:22;;;;;;;5.03;2.83;;;11.70;57.10;;;;;;10296246;28;20252;-80
2022/04/18 22:45:24;;;;;;;3.20;2.27;;;13.30;68.30;;;;;;10267462;28;20253;-80
2022/04/18 22:50:27;;;;;;;7.50;3.93;;;13.60;68.20;;;;;;10294104;28;20249;-80
2022/04/18 22:55:29;;;;;;;3.40;2.57;;;13.20;58.70;;;;;;10283147;28;20245;-80
2022/04/18 23:00:33;;;;;;;4.03;2.83;;;14.30;66.50;;;;;;10283710;28;20237;-80
2022/04/18 23:05:53;;;;;;;6.27;4.13;;;14.60;63.70;;;;;;10273166;28;20320;-80
2022/04/18 23:10:55;;;;;;;5.27;2.87;;;13.70;56.80;;;;;;10307671;28;20233;-80
2022/04/18 23:16:07;;;;;;;3.90;2.47;;;14.10;61.50;;;;;;10277767;28;20263;-80
2022/04/18 23:21:10;;;;;;;6.20;3.47;;;12.40;67.50;;;;;;10292667;28;20690;-80
2022/04/18 23:26:12;;;;;;;4.80;3.60;;;12.80;63.30;;;;;;10290807;28;20303;-80
2022/04/18 23:31:15;;;;;;;5.40;3.43;;;12.10;66.70;;;;;;10309656;28;20237;-80
2022/04/18 23:36:18;;;;;;;5.83;3.50;;;11.70;69.00;;;;;;10330087;28;20240;-80
2022/04/18 23:46:41;;;;;;;8.10;4.67;;;9.90;56.60;;;;;;10304200;28;20259;-80
2022/04/18 23:51:44;;;;;;;8.93;4.63;;;;;;;;;;10295035;28;20288;-80
2022/04/18 23:56:46;;;;;;;5.97;3.20;;;7.40;62.30;;;;;;10270932;28;20309;-80
